sensor_id;sensor_type;location;lat;lon;timestamp;P1;durP1;ratioP1;P2;durP2;ratioP2
58306;SDS011;44116;50.884;4.768;2023-09-19T00:00:43;12.2;;;2.6;;
58306;SDS011;44116;50.884;4.768;2023-09-19T00:02:42;15.6;;;2.8;;
58306;SDS011;44116;50.884;4.768;2023-09-19T00:06:42;15.9;;;3.1;;
58306;SDS011;44116;50.884;4.768;2023-09-19T00:08:42;12.6;;;2.8;;
58306;SDS011;44116;50.884;4.768;2023-09-19T00:10:42;13.3;;;3.1;;
58306;SDS011;44116;50.884;4.768;2023-09-19T00:12:42;11.3;;;2.7;;
58306;SDS011;44116;50.884;4.768;2023-09-19T00:14:41;11.2;;;2.8;;
58306;SDS011;44116;50.884;4.768;2023-09-19T00:16:41;14.7;;;3.0;;
58306;SDS011;44116;50.884;4.768;2023-09-19T00:18:41;11.6;;;2.9;;
58306;SDS011;44116;50.884;4.768;2023-09-19T00:20:41;8.8;;;2.2;;
58306;SDS011;44116;50.884;4.768;2023-09-19T00:22:41;13.2;;;2.6;;
58306;SDS011;44116;50.884;4.768;2023-09-19T00:24:40;12.9;;;2.8;;
58306;SDS011;44116;50.884;4.768;2023-09-19T00:26:40;11.2;;;2.6;;
58306;SDS011;44116;50.884;4.768;2023-09-19T00:28:40;12.3;;;2.7;;
58306;SDS011;44116;50.884;4.768;2023-09-19T00:30:42;17.0;;;3.6;;
58306;SDS011;44116;50.884;4.768;2023-09-19T00:32:40;11.4;;;2.5;;
58306;SDS011;44116;50.884;4.768;2023-09-19T00:34:39;12.9;;;2.7;;
58306;SDS011;44116;50.884;4.768;2023-09-19T00:44:39;11.2;;;2.6;;
58306;SDS011;44116;50.884;4.768;2023-09-19T00:46:39;9.8;;;2.4;;
58306;SDS011;44116;50.884;4.768;2023-09-19T00:48:40;9.6;;;2.5;;
58306;SDS011;44116;50.884;4.768;2023-09-19T00:50:41;12.8;;;3.0;;
58306;SDS011;44116;50.884;4.768;2023-09-19T00:52:38;12.5;;;2.8;;
58306;SDS011;44116;50.884;4.768;2023-09-19T00:54:38;11.1;;;2.5;;
58306;SDS011;44116;50.884;4.768;2023-09-19T00:56:38;11.6;;;2.4;;
58306;SDS011;44116;50.884;4.768;2023-09-19T01:00:37;11.8;;;2.8;;
58306;SDS011;44116;50.884;4.768;2023-09-19T01:02:37;12.0;;;2.9;;
58306;SDS011;44116;50.884;4.768;2023-09-19T01:04:37;11.1;;;2.6;;
58306;SDS011;44116;50.884;4.768;2023-09-19T01:06:37;15.8;;;2.9;;
58306;SDS011;44116;50.884;4.768;2023-09-19T01:08:37;12.7;;;3.1;;
58306;SDS011;44116;50.884;4.768;2023-09-19T01:10:44;13.0;;;2.9;;
58306;SDS011;44116;50.884;4.768;2023-09-19T01:14:44;11.7;;;2.8;;
58306;SDS011;44116;50.884;4.768;2023-09-19T01:16:42;10.1;;;2.6;;
58306;SDS011;44116;50.884;4.768;2023-09-19T01:18:43;10.0;;;2.9;;
58306;SDS011;44116;50.884;4.768;2023-09-19T01:20:39;13.1;;;2.7;;
58306;SDS011;44116;50.884;4.768;2023-09-19T01:24:54;14.7;;;2.5;;
58306;SDS011;44116;50.884;4.768;2023-09-19T01:26:56;12.9;;;2.6;;
58306;SDS011;44116;50.884;4.768;2023-09-19T01:28:45;14.0;;;2.8;;
58306;SDS011;44116;50.884;4.768;2023-09-19T01:30:40;13.0;;;3.2;;
58306;SDS011;44116;50.884;4.768;2023-09-19T01:32:36;13.5;;;2.7;;
58306;SDS011;44116;50.884;4.768;2023-09-19T01:34:45;12.5;;;2.5;;
58306;SDS011;44116;50.884;4.768;2023-09-19T01:36:36;11.4;;;2.6;;
58306;SDS011;44116;50.884;4.768;2023-09-19T01:40:40;14.1;;;2.7;;
58306;SDS011;44116;50.884;4.768;2023-09-19T01:42:37;13.5;;;2.8;;
58306;SDS011;44116;50.884;4.768;2023-09-19T01:44:42;13.9;;;2.7;;
58306;SDS011;44116;50.884;4.768;2023-09-19T01:46:35;14.7;;;2.9;;
58306;SDS011;44116;50.884;4.768;2023-09-19T01:48:38;14.4;;;2.8;;
58306;SDS011;44116;50.884;4.768;2023-09-19T01:50:41;11.4;;;2.3;;
58306;SDS011;44116;50.884;4.768;2023-09-19T01:52:39;12.5;;;3.2;;
58306;SDS011;44116;50.884;4.768;2023-09-19T01:54:40;10.9;;;2.4;;
58306;SDS011;44116;50.884;4.768;2023-09-19T01:56:37;13.8;;;2.8;;
58306;SDS011;44116;50.884;4.768;2023-09-19T01:58:35;12.7;;;2.3;;
58306;SDS011;44116;50.884;4.768;2023-09-19T02:00:34;12.0;;;2.8;;
58306;SDS011;44116;50.884;4.768;2023-09-19T02:02:34;14.9;;;3.1;;
58306;SDS011;44116;50.884;4.768;2023-09-19T02:06:32;12.5;;;3.4;;
58306;SDS011;44116;50.884;4.768;2023-09-19T02:08:32;11.2;;;2.8;;
58306;SDS011;44116;50.884;4.768;2023-09-19T02:12:31;13.2;;;3.1;;
58306;SDS011;44116;50.884;4.768;2023-09-19T02:14:31;18.7;;;2.9;;
58306;SDS011;44116;50.884;4.768;2023-09-19T02:16:31;11.2;;;2.7;;
58306;SDS011;44116;50.884;4.768;2023-09-19T02:18:31;11.5;;;2.9;;
58306;SDS011;44116;50.884;4.768;2023-09-19T02:24:30;14.4;;;2.6;;
58306;SDS011;44116;50.884;4.768;2023-09-19T02:26:30;12.2;;;2.7;;
58306;SDS011;44116;50.884;4.768;2023-09-19T02:28:30;15.3;;;3.3;;
58306;SDS011;44116;50.884;4.768;2023-09-19T02:32:30;15.0;;;3.2;;
58306;SDS011;44116;50.884;4.768;2023-09-19T02:34:29;12.2;;;2.9;;
58306;SDS011;44116;50.884;4.768;2023-09-19T02:36:29;13.3;;;3.0;;
58306;SDS011;44116;50.884;4.768;2023-09-19T02:38:29;13.4;;;2.4;;
58306;SDS011;44116;50.884;4.768;2023-09-19T02:40:28;14.8;;;3.2;;
58306;SDS011;44116;50.884;4.768;2023-09-19T02:42:28;15.8;;;3.0;;
58306;SDS011;44116;50.884;4.768;2023-09-19T02:44:28;11.0;;;2.7;;
58306;SDS011;44116;50.884;4.768;2023-09-19T02:46:28;22.8;;;3.4;;
58306;SDS011;44116;50.884;4.768;2023-09-19T02:48:28;16.9;;;3.2;;
58306;SDS011;44116;50.884;4.768;2023-09-19T02:50:28;14.2;;;3.0;;
58306;SDS011;44116;50.884;4.768;2023-09-19T02:52:27;12.3;;;2.8;;
58306;SDS011;44116;50.884;4.768;2023-09-19T02:54:27;17.8;;;3.3;;
58306;SDS011;44116;50.884;4.768;2023-09-19T02:56:27;14.0;;;2.9;;
58306;SDS011;44116;50.884;4.768;2023-09-19T02:58:27;15.3;;;2.7;;
58306;SDS011;44116;50.884;4.768;2023-09-19T03:00:27;18.6;;;3.2;;
58306;SDS011;44116;50.884;4.768;2023-09-19T03:02:26;13.5;;;2.8;;
58306;SDS011;44116;50.884;4.768;2023-09-19T03:04:26;13.4;;;3.0;;
58306;SDS011;44116;50.884;4.768;2023-09-19T03:06:26;13.5;;;3.2;;
58306;SDS011;44116;50.884;4.768;2023-09-19T03:08:26;18.4;;;2.9;;
58306;SDS011;44116;50.884;4.768;2023-09-19T03:10:27;14.3;;;2.8;;
58306;SDS011;44116;50.884;4.768;2023-09-19T03:12:25;10.9;;;3.0;;
58306;SDS011;44116;50.884;4.768;2023-09-19T03:14:25;11.7;;;2.9;;
58306;SDS011;44116;50.884;4.768;2023-09-19T03:16:25;15.7;;;3.2;;
58306;SDS011;44116;50.884;4.768;2023-09-19T03:18:25;14.2;;;3.0;;
58306;SDS011;44116;50.884;4.768;2023-09-19T03:20:25;12.1;;;2.7;;
58306;SDS011;44116;50.884;4.768;2023-09-19T03:22:26;12.1;;;3.2;;
58306;SDS011;44116;50.884;4.768;2023-09-19T03:24:25;11.3;;;3.1;;
58306;SDS011;44116;50.884;4.768;2023-09-19T03:26:24;15.7;;;3.0;;
58306;SDS011;44116;50.884;4.768;2023-09-19T03:28:24;15.2;;;3.1;;
58306;SDS011;44116;50.884;4.768;2023-09-19T03:30:24;12.6;;;2.9;;
58306;SDS011;44116;50.884;4.768;2023-09-19T03:32:23;16.4;;;3.1;;
58306;SDS011;44116;50.884;4.768;2023-09-19T03:34:23;15.0;;;2.7;;
58306;SDS011;44116;50.884;4.768;2023-09-19T03:36:23;11.3;;;2.9;;
58306;SDS011;44116;50.884;4.768;2023-09-19T03:38:23;15.6;;;3.0;;
58306;SDS011;44116;50.884;4.768;2023-09-19T03:40:23;9.7;;;2.7;;
58306;SDS011;44116;50.884;4.768;2023-09-19T03:42:23;11.0;;;3.0;;
58306;SDS011;44116;50.884;4.768;2023-09-19T03:44:22;11.7;;;3.3;;
58306;SDS011;44116;50.884;4.768;2023-09-19T03:46:22;15.8;;;3.1;;
58306;SDS011;44116;50.884;4.768;2023-09-19T03:48:22;13.5;;;3.3;;
58306;SDS011;44116;50.884;4.768;2023-09-19T03:50:22;13.6;;;2.7;;
58306;SDS011;44116;50.884;4.768;2023-09-19T03:52:22;15.0;;;3.2;;
58306;SDS011;44116;50.884;4.768;2023-09-19T03:54:21;12.5;;;2.6;;
58306;SDS011;44116;50.884;4.768;2023-09-19T03:56:21;11.3;;;2.8;;
58306;SDS011;44116;50.884;4.768;2023-09-19T03:58:21;14.6;;;2.7;;
58306;SDS011;44116;50.884;4.768;2023-09-19T04:00:21;12.1;;;3.1;;
58306;SDS011;44116;50.884;4.768;2023-09-19T04:02:21;12.3;;;2.5;;
58306;SDS011;44116;50.884;4.768;2023-09-19T04:04:20;11.1;;;2.8;;
58306;SDS011;44116;50.884;4.768;2023-09-19T04:06:20;11.4;;;3.2;;
58306;SDS011;44116;50.884;4.768;2023-09-19T04:08:20;14.0;;;3.0;;
58306;SDS011;44116;50.884;4.768;2023-09-19T04:10:20;13.6;;;3.4;;
58306;SDS011;44116;50.884;4.768;2023-09-19T04:14:20;10.8;;;3.0;;
58306;SDS011;44116;50.884;4.768;2023-09-19T04:16:19;15.4;;;3.3;;
58306;SDS011;44116;50.884;4.768;2023-09-19T04:18:19;18.1;;;3.1;;
58306;SDS011;44116;50.884;4.768;2023-09-19T04:20:19;13.6;;;3.6;;
58306;SDS011;44116;50.884;4.768;2023-09-19T04:22:19;14.7;;;3.5;;
58306;SDS011;44116;50.884;4.768;2023-09-19T04:24:19;14.0;;;2.9;;
58306;SDS011;44116;50.884;4.768;2023-09-19T04:26:18;11.9;;;2.8;;
58306;SDS011;44116;50.884;4.768;2023-09-19T04:28:18;16.3;;;3.5;;
58306;SDS011;44116;50.884;4.768;2023-09-19T04:34:18;15.3;;;3.0;;
58306;SDS011;44116;50.884;4.768;2023-09-19T04:36:17;11.5;;;2.6;;
58306;SDS011;44116;50.884;4.768;2023-09-19T04:38:17;15.9;;;3.0;;
58306;SDS011;44116;50.884;4.768;2023-09-19T04:40:17;20.3;;;3.5;;
58306;SDS011;44116;50.884;4.768;2023-09-19T04:42:17;12.5;;;2.9;;
58306;SDS011;44116;50.884;4.768;2023-09-19T04:44:17;17.9;;;3.3;;
58306;SDS011;44116;50.884;4.768;2023-09-19T04:46:16;12.7;;;3.5;;
58306;SDS011;44116;50.884;4.768;2023-09-19T04:48:16;11.3;;;3.2;;
58306;SDS011;44116;50.884;4.768;2023-09-19T04:50:16;14.8;;;3.4;;
58306;SDS011;44116;50.884;4.768;2023-09-19T04:52:16;15.7;;;3.1;;
58306;SDS011;44116;50.884;4.768;2023-09-19T04:54:16;12.6;;;2.9;;
58306;SDS011;44116;50.884;4.768;2023-09-19T05:00:16;11.3;;;2.5;;
58306;SDS011;44116;50.884;4.768;2023-09-19T05:04:15;11.6;;;2.4;;
58306;SDS011;44116;50.884;4.768;2023-09-19T05:06:14;14.2;;;3.1;;
58306;SDS011;44116;50.884;4.768;2023-09-19T05:08:14;13.4;;;2.6;;
58306;SDS011;44116;50.884;4.768;2023-09-19T05:10:14;11.9;;;2.7;;
58306;SDS011;44116;50.884;4.768;2023-09-19T05:12:14;13.5;;;2.5;;
58306;SDS011;44116;50.884;4.768;2023-09-19T05:14:14;10.5;;;2.8;;
58306;SDS011;44116;50.884;4.768;2023-09-19T05:16:13;14.8;;;2.6;;
58306;SDS011;44116;50.884;4.768;2023-09-19T05:18:13;12.7;;;2.8;;
58306;SDS011;44116;50.884;4.768;2023-09-19T05:20:13;13.1;;;2.5;;
58306;SDS011;44116;50.884;4.768;2023-09-19T05:22:13;10.6;;;2.6;;
58306;SDS011;44116;50.884;4.768;2023-09-19T05:24:12;13.7;;;3.1;;
58306;SDS011;44116;50.884;4.768;2023-09-19T05:26:12;12.9;;;2.9;;
58306;SDS011;44116;50.884;4.768;2023-09-19T05:28:12;12.5;;;2.7;;
58306;SDS011;44116;50.884;4.768;2023-09-19T05:30:12;12.6;;;2.6;;
58306;SDS011;44116;50.884;4.768;2023-09-19T05:32:12;13.1;;;2.9;;
58306;SDS011;44116;50.884;4.768;2023-09-19T05:34:12;12.5;;;2.7;;
58306;SDS011;44116;50.884;4.768;2023-09-19T05:36:11;14.2;;;2.8;;
58306;SDS011;44116;50.884;4.768;2023-09-19T05:40:11;15.3;;;3.1;;
58306;SDS011;44116;50.884;4.768;2023-09-19T05:42:11;12.0;;;2.7;;
58306;SDS011;44116;50.884;4.768;2023-09-19T05:44:11;17.1;;;3.1;;
58306;SDS011;44116;50.884;4.768;2023-09-19T05:46:10;13.4;;;2.7;;
58306;SDS011;44116;50.884;4.768;2023-09-19T05:48:11;11.9;;;3.2;;
58306;SDS011;44116;50.884;4.768;2023-09-19T05:50:10;14.1;;;2.7;;
58306;SDS011;44116;50.884;4.768;2023-09-19T05:54:09;13.9;;;3.0;;
58306;SDS011;44116;50.884;4.768;2023-09-19T05:56:09;13.9;;;3.3;;
58306;SDS011;44116;50.884;4.768;2023-09-19T06:00:10;13.4;;;2.9;;
58306;SDS011;44116;50.884;4.768;2023-09-19T06:02:09;14.9;;;3.2;;
58306;SDS011;44116;50.884;4.768;2023-09-19T06:04:09;13.3;;;2.6;;
58306;SDS011;44116;50.884;4.768;2023-09-19T06:06:08;11.7;;;3.0;;
58306;SDS011;44116;50.884;4.768;2023-09-19T06:08:08;12.7;;;2.7;;
58306;SDS011;44116;50.884;4.768;2023-09-19T06:10:08;14.7;;;3.0;;
58306;SDS011;44116;50.884;4.768;2023-09-19T06:16:07;14.6;;;2.7;;
58306;SDS011;44116;50.884;4.768;2023-09-19T06:18:11;11.5;;;2.5;;
58306;SDS011;44116;50.884;4.768;2023-09-19T06:20:07;13.8;;;3.1;;
58306;SDS011;44116;50.884;4.768;2023-09-19T06:22:07;12.5;;;3.0;;
58306;SDS011;44116;50.884;4.768;2023-09-19T06:24:06;13.6;;;2.8;;
58306;SDS011;44116;50.884;4.768;2023-09-19T06:26:06;11.9;;;3.0;;
58306;SDS011;44116;50.884;4.768;2023-09-19T06:28:06;14.1;;;2.7;;
58306;SDS011;44116;50.884;4.768;2023-09-19T06:30:06;10.5;;;2.5;;
58306;SDS011;44116;50.884;4.768;2023-09-19T06:32:07;14.4;;;3.1;;
58306;SDS011;44116;50.884;4.768;2023-09-19T06:34:05;15.4;;;2.7;;
58306;SDS011;44116;50.884;4.768;2023-09-19T06:36:06;14.4;;;3.1;;
58306;SDS011;44116;50.884;4.768;2023-09-19T06:38:05;13.7;;;2.8;;
58306;SDS011;44116;50.884;4.768;2023-09-19T06:40:06;15.6;;;2.9;;
58306;SDS011;44116;50.884;4.768;2023-09-19T06:44:05;15.1;;;3.4;;
58306;SDS011;44116;50.884;4.768;2023-09-19T06:46:05;13.8;;;2.6;;
58306;SDS011;44116;50.884;4.768;2023-09-19T06:48:05;14.4;;;3.5;;
58306;SDS011;44116;50.884;4.768;2023-09-19T06:50:04;12.7;;;2.6;;
58306;SDS011;44116;50.884;4.768;2023-09-19T06:52:05;10.1;;;2.8;;
58306;SDS011;44116;50.884;4.768;2023-09-19T06:54:04;16.1;;;2.7;;
58306;SDS011;44116;50.884;4.768;2023-09-19T06:56:04;16.6;;;3.2;;
58306;SDS011;44116;50.884;4.768;2023-09-19T06:58:03;12.6;;;2.7;;
58306;SDS011;44116;50.884;4.768;2023-09-19T07:00:04;13.6;;;2.8;;
58306;SDS011;44116;50.884;4.768;2023-09-19T07:02:03;15.6;;;2.9;;
58306;SDS011;44116;50.884;4.768;2023-09-19T07:04:03;13.4;;;2.8;;
58306;SDS011;44116;50.884;4.768;2023-09-19T07:06:03;10.2;;;2.7;;
58306;SDS011;44116;50.884;4.768;2023-09-19T07:08:04;12.0;;;2.6;;
58306;SDS011;44116;50.884;4.768;2023-09-19T07:10:03;12.6;;;2.9;;
58306;SDS011;44116;50.884;4.768;2023-09-19T07:12:03;10.8;;;2.3;;
58306;SDS011;44116;50.884;4.768;2023-09-19T07:14:02;12.1;;;2.6;;
58306;SDS011;44116;50.884;4.768;2023-09-19T07:16:02;11.4;;;3.1;;
58306;SDS011;44116;50.884;4.768;2023-09-19T07:18:02;10.1;;;2.6;;
58306;SDS011;44116;50.884;4.768;2023-09-19T07:22:02;10.0;;;2.8;;
58306;SDS011;44116;50.884;4.768;2023-09-19T07:24:01;11.4;;;2.6;;
58306;SDS011;44116;50.884;4.768;2023-09-19T07:26:01;13.2;;;2.8;;
58306;SDS011;44116;50.884;4.768;2023-09-19T07:28:01;14.0;;;2.7;;
58306;SDS011;44116;50.884;4.768;2023-09-19T07:30:01;11.5;;;2.6;;
58306;SDS011;44116;50.884;4.768;2023-09-19T07:32:01;12.9;;;2.7;;
58306;SDS011;44116;50.884;4.768;2023-09-19T07:36:01;13.9;;;2.8;;
58306;SDS011;44116;50.884;4.768;2023-09-19T07:40:00;13.3;;;2.9;;
58306;SDS011;44116;50.884;4.768;2023-09-19T07:42:00;10.5;;;2.2;;
58306;SDS011;44116;50.884;4.768;2023-09-19T07:44:00;11.0;;;2.9;;
58306;SDS011;44116;50.884;4.768;2023-09-19T07:46:03;9.8;;;2.5;;
58306;SDS011;44116;50.884;4.768;2023-09-19T07:48:00;12.7;;;3.2;;
58306;SDS011;44116;50.884;4.768;2023-09-19T07:50:00;12.9;;;2.6;;
58306;SDS011;44116;50.884;4.768;2023-09-19T07:52:00;12.2;;;2.7;;
58306;SDS011;44116;50.884;4.768;2023-09-19T07:53:59;12.1;;;2.9;;
58306;SDS011;44116;50.884;4.768;2023-09-19T07:56:03;11.5;;;2.5;;
58306;SDS011;44116;50.884;4.768;2023-09-19T07:57:59;12.6;;;2.7;;
58306;SDS011;44116;50.884;4.768;2023-09-19T07:59:59;12.5;;;3.0;;
58306;SDS011;44116;50.884;4.768;2023-09-19T08:01:59;12.8;;;2.7;;
58306;SDS011;44116;50.884;4.768;2023-09-19T08:03:59;12.6;;;2.8;;
58306;SDS011;44116;50.884;4.768;2023-09-19T08:05:59;13.2;;;2.9;;
58306;SDS011;44116;50.884;4.768;2023-09-19T08:09:58;11.5;;;2.4;;
58306;SDS011;44116;50.884;4.768;2023-09-19T08:11:58;13.4;;;2.6;;
58306;SDS011;44116;50.884;4.768;2023-09-19T08:13:58;12.5;;;3.0;;
58306;SDS011;44116;50.884;4.768;2023-09-19T08:15:58;13.7;;;2.9;;
58306;SDS011;44116;50.884;4.768;2023-09-19T08:17:58;11.9;;;2.7;;
58306;SDS011;44116;50.884;4.768;2023-09-19T08:19:57;10.0;;;2.4;;
58306;SDS011;44116;50.884;4.768;2023-09-19T08:21:58;11.9;;;2.3;;
58306;SDS011;44116;50.884;4.768;2023-09-19T08:23:57;12.7;;;2.7;;
58306;SDS011;44116;50.884;4.768;2023-09-19T08:25:57;11.4;;;3.0;;
58306;SDS011;44116;50.884;4.768;2023-09-19T08:27:57;13.7;;;3.2;;
58306;SDS011;44116;50.884;4.768;2023-09-19T08:29:57;14.1;;;2.6;;
58306;SDS011;44116;50.884;4.768;2023-09-19T08:31:57;14.4;;;2.5;;
58306;SDS011;44116;50.884;4.768;2023-09-19T08:33:57;13.7;;;3.1;;
58306;SDS011;44116;50.884;4.768;2023-09-19T08:35:56;10.6;;;2.2;;
58306;SDS011;44116;50.884;4.768;2023-09-19T08:37:56;14.5;;;2.8;;
58306;SDS011;44116;50.884;4.768;2023-09-19T08:39:56;13.2;;;2.7;;
58306;SDS011;44116;50.884;4.768;2023-09-19T08:43:58;17.4;;;3.3;;
58306;SDS011;44116;50.884;4.768;2023-09-19T08:50:01;13.9;;;2.7;;
58306;SDS011;44116;50.884;4.768;2023-09-19T08:52:02;12.2;;;2.6;;
58306;SDS011;44116;50.884;4.768;2023-09-19T08:54:03;14.3;;;2.9;;
58306;SDS011;44116;50.884;4.768;2023-09-19T08:55:55;13.9;;;2.7;;
58306;SDS011;44116;50.884;4.768;2023-09-19T08:57:59;12.3;;;2.5;;
58306;SDS011;44116;50.884;4.768;2023-09-19T09:01:55;17.2;;;3.4;;
58306;SDS011;44116;50.884;4.768;2023-09-19T09:03:56;13.5;;;3.2;;
58306;SDS011;44116;50.884;4.768;2023-09-19T09:05:55;12.1;;;2.5;;
58306;SDS011;44116;50.884;4.768;2023-09-19T09:11:55;15.4;;;2.9;;
58306;SDS011;44116;50.884;4.768;2023-09-19T09:13:54;10.4;;;2.5;;
58306;SDS011;44116;50.884;4.768;2023-09-19T09:17:54;12.2;;;3.3;;
58306;SDS011;44116;50.884;4.768;2023-09-19T09:19:54;13.2;;;2.9;;
58306;SDS011;44116;50.884;4.768;2023-09-19T09:21:54;15.9;;;3.1;;
58306;SDS011;44116;50.884;4.768;2023-09-19T09:23:54;11.6;;;2.6;;
58306;SDS011;44116;50.884;4.768;2023-09-19T09:25:54;13.5;;;2.7;;
58306;SDS011;44116;50.884;4.768;2023-09-19T09:28:00;13.1;;;2.9;;
58306;SDS011;44116;50.884;4.768;2023-09-19T09:29:54;14.9;;;3.0;;
58306;SDS011;44116;50.884;4.768;2023-09-19T09:31:53;10.3;;;2.4;;
58306;SDS011;44116;50.884;4.768;2023-09-19T09:33:53;11.8;;;2.7;;
58306;SDS011;44116;50.884;4.768;2023-09-19T09:35:54;12.9;;;2.6;;
58306;SDS011;44116;50.884;4.768;2023-09-19T09:37:59;12.2;;;2.5;;
58306;SDS011;44116;50.884;4.768;2023-09-19T09:41:53;9.7;;;2.4;;
58306;SDS011;44116;50.884;4.768;2023-09-19T09:43:53;11.8;;;2.5;;
58306;SDS011;44116;50.884;4.768;2023-09-19T09:46:07;14.6;;;2.9;;
58306;SDS011;44116;50.884;4.768;2023-09-19T09:47:52;10.0;;;2.6;;
58306;SDS011;44116;50.884;4.768;2023-09-19T09:49:52;9.7;;;2.4;;
58306;SDS011;44116;50.884;4.768;2023-09-19T09:52:01;11.8;;;2.5;;
58306;SDS011;44116;50.884;4.768;2023-09-19T09:53:52;10.8;;;2.3;;
58306;SDS011;44116;50.884;4.768;2023-09-19T09:56:01;11.0;;;2.5;;
58306;SDS011;44116;50.884;4.768;2023-09-19T10:01:52;10.6;;;2.3;;
58306;SDS011;44116;50.884;4.768;2023-09-19T10:05:53;9.8;;;2.1;;
58306;SDS011;44116;50.884;4.768;2023-09-19T10:07:52;11.0;;;2.3;;
58306;SDS011;44116;50.884;4.768;2023-09-19T10:09:51;11.0;;;2.4;;
58306;SDS011;44116;50.884;4.768;2023-09-19T10:12:03;14.0;;;2.5;;
58306;SDS011;44116;50.884;4.768;2023-09-19T10:13:51;12.8;;;2.4;;
58306;SDS011;44116;50.884;4.768;2023-09-19T10:15:51;9.7;;;2.3;;
58306;SDS011;44116;50.884;4.768;2023-09-19T10:17:52;9.3;;;2.2;;
58306;SDS011;44116;50.884;4.768;2023-09-19T10:19:55;10.5;;;2.1;;
58306;SDS011;44116;50.884;4.768;2023-09-19T10:21:54;11.0;;;2.4;;
58306;SDS011;44116;50.884;4.768;2023-09-19T10:23:51;9.8;;;2.0;;
58306;SDS011;44116;50.884;4.768;2023-09-19T10:25:52;10.2;;;2.4;;
58306;SDS011;44116;50.884;4.768;2023-09-19T10:27:53;7.9;;;2.3;;
58306;SDS011;44116;50.884;4.768;2023-09-19T10:29:51;11.2;;;2.2;;
58306;SDS011;44116;50.884;4.768;2023-09-19T10:31:52;10.6;;;2.0;;
58306;SDS011;44116;50.884;4.768;2023-09-19T10:33:51;8.8;;;1.9;;
58306;SDS011;44116;50.884;4.768;2023-09-19T10:41:53;9.8;;;2.2;;
58306;SDS011;44116;50.884;4.768;2023-09-19T10:43:51;9.0;;;1.8;;
58306;SDS011;44116;50.884;4.768;2023-09-19T10:45:50;7.5;;;1.9;;
58306;SDS011;44116;50.884;4.768;2023-09-19T10:47:51;9.3;;;1.8;;
58306;SDS011;44116;50.884;4.768;2023-09-19T10:51:53;9.9;;;2.2;;
58306;SDS011;44116;50.884;4.768;2023-09-19T10:53:52;8.4;;;1.8;;
58306;SDS011;44116;50.884;4.768;2023-09-19T10:55:58;10.2;;;2.1;;
58306;SDS011;44116;50.884;4.768;2023-09-19T10:57:50;9.0;;;1.9;;
58306;SDS011;44116;50.884;4.768;2023-09-19T11:00:00;9.0;;;2.0;;
58306;SDS011;44116;50.884;4.768;2023-09-19T11:01:51;10.4;;;2.1;;
58306;SDS011;44116;50.884;4.768;2023-09-19T11:06:04;9.1;;;2.1;;
58306;SDS011;44116;50.884;4.768;2023-09-19T11:07:59;7.3;;;1.8;;
58306;SDS011;44116;50.884;4.768;2023-09-19T11:09:50;7.9;;;1.5;;
58306;SDS011;44116;50.884;4.768;2023-09-19T11:11:50;9.0;;;1.9;;
58306;SDS011;44116;50.884;4.768;2023-09-19T11:16:03;7.6;;;1.9;;
58306;SDS011;44116;50.884;4.768;2023-09-19T11:17:49;7.6;;;1.5;;
58306;SDS011;44116;50.884;4.768;2023-09-19T11:21:52;5.5;;;1.6;;
58306;SDS011;44116;50.884;4.768;2023-09-19T11:25:50;5.6;;;1.7;;
58306;SDS011;44116;50.884;4.768;2023-09-19T11:31:49;8.8;;;1.7;;
58306;SDS011;44116;50.884;4.768;2023-09-19T11:36:01;7.9;;;1.4;;
58306;SDS011;44116;50.884;4.768;2023-09-19T11:37:59;5.4;;;1.3;;
58306;SDS011;44116;50.884;4.768;2023-09-19T11:40:06;6.1;;;1.4;;
58306;SDS011;44116;50.884;4.768;2023-09-19T11:43:50;7.8;;;1.6;;
58306;SDS011;44116;50.884;4.768;2023-09-19T11:46:06;5.8;;;1.4;;
58306;SDS011;44116;50.884;4.768;2023-09-19T11:47:50;5.6;;;1.3;;
58306;SDS011;44116;50.884;4.768;2023-09-19T11:49:49;5.3;;;1.4;;
58306;SDS011;44116;50.884;4.768;2023-09-19T11:51:50;6.9;;;1.5;;
58306;SDS011;44116;50.884;4.768;2023-09-19T11:55:49;4.6;;;1.2;;
58306;SDS011;44116;50.884;4.768;2023-09-19T11:57:49;6.5;;;1.4;;
58306;SDS011;44116;50.884;4.768;2023-09-19T11:59:49;7.0;;;1.3;;
58306;SDS011;44116;50.884;4.768;2023-09-19T12:03:53;6.1;;;1.4;;
58306;SDS011;44116;50.884;4.768;2023-09-19T12:05:49;5.5;;;1.3;;
58306;SDS011;44116;50.884;4.768;2023-09-19T12:11:49;4.4;;;1.1;;
58306;SDS011;44116;50.884;4.768;2023-09-19T12:13:49;5.7;;;1.3;;
58306;SDS011;44116;50.884;4.768;2023-09-19T12:15:49;6.3;;;1.4;;
58306;SDS011;44116;50.884;4.768;2023-09-19T12:17:49;6.2;;;1.3;;
58306;SDS011;44116;50.884;4.768;2023-09-19T12:19:51;4.9;;;1.2;;
58306;SDS011;44116;50.884;4.768;2023-09-19T12:21:57;9.2;;;1.3;;
58306;SDS011;44116;50.884;4.768;2023-09-19T12:23:57;6.5;;;1.4;;
58306;SDS011;44116;50.884;4.768;2023-09-19T12:25:49;6.1;;;1.3;;
58306;SDS011;44116;50.884;4.768;2023-09-19T12:27:49;4.4;;;1.2;;
58306;SDS011;44116;50.884;4.768;2023-09-19T12:35:49;6.8;;;1.3;;
58306;SDS011;44116;50.884;4.768;2023-09-19T12:37:51;6.0;;;1.4;;
58306;SDS011;44116;50.884;4.768;2023-09-19T12:39:50;8.8;;;1.3;;
58306;SDS011;44116;50.884;4.768;2023-09-19T12:43:49;4.6;;;1.4;;
58306;SDS011;44116;50.884;4.768;2023-09-19T12:45:49;5.7;;;1.5;;
58306;SDS011;44116;50.884;4.768;2023-09-19T12:53:57;5.6;;;1.3;;
58306;SDS011;44116;50.884;4.768;2023-09-19T12:55:58;5.6;;;1.1;;
58306;SDS011;44116;50.884;4.768;2023-09-19T12:57:57;7.5;;;1.2;;
58306;SDS011;44116;50.884;4.768;2023-09-19T13:02:03;5.8;;;1.4;;
58306;SDS011;44116;50.884;4.768;2023-09-19T13:07:48;7.1;;;1.3;;
58306;SDS011;44116;50.884;4.768;2023-09-19T13:10:02;4.2;;;1.2;;
58306;SDS011;44116;50.884;4.768;2023-09-19T13:11:48;6.1;;;1.5;;
58306;SDS011;44116;50.884;4.768;2023-09-19T13:13:50;5.2;;;1.2;;
58306;SDS011;44116;50.884;4.768;2023-09-19T13:15:51;6.5;;;1.7;;
58306;SDS011;44116;50.884;4.768;2023-09-19T13:17:49;6.3;;;1.5;;
58306;SDS011;44116;50.884;4.768;2023-09-19T13:19:49;4.4;;;1.2;;
58306;SDS011;44116;50.884;4.768;2023-09-19T13:21:48;4.6;;;1.3;;
58306;SDS011;44116;50.884;4.768;2023-09-19T13:23:49;4.4;;;1.2;;
58306;SDS011;44116;50.884;4.768;2023-09-19T13:27:49;5.5;;;1.4;;
58306;SDS011;44116;50.884;4.768;2023-09-19T13:31:48;4.8;;;1.3;;
58306;SDS011;44116;50.884;4.768;2023-09-19T13:33:48;5.1;;;1.4;;
58306;SDS011;44116;50.884;4.768;2023-09-19T13:35:47;5.7;;;1.3;;
58306;SDS011;44116;50.884;4.768;2023-09-19T13:37:47;7.0;;;1.4;;
58306;SDS011;44116;50.884;4.768;2023-09-19T13:39:47;6.0;;;1.7;;
58306;SDS011;44116;50.884;4.768;2023-09-19T13:41:47;6.2;;;1.5;;
58306;SDS011;44116;50.884;4.768;2023-09-19T13:43:47;5.7;;;1.3;;
58306;SDS011;44116;50.884;4.768;2023-09-19T13:45:47;7.6;;;1.5;;
58306;SDS011;44116;50.884;4.768;2023-09-19T13:47:47;3.9;;;1.1;;
58306;SDS011;44116;50.884;4.768;2023-09-19T13:51:47;5.7;;;1.4;;
58306;SDS011;44116;50.884;4.768;2023-09-19T13:53:47;5.7;;;1.2;;
58306;SDS011;44116;50.884;4.768;2023-09-19T13:55:47;6.1;;;1.5;;
58306;SDS011;44116;50.884;4.768;2023-09-19T13:57:47;5.9;;;1.6;;
58306;SDS011;44116;50.884;4.768;2023-09-19T13:59:47;6.5;;;1.5;;
58306;SDS011;44116;50.884;4.768;2023-09-19T14:01:47;5.8;;;1.3;;
58306;SDS011;44116;50.884;4.768;2023-09-19T14:03:47;7.5;;;1.4;;
58306;SDS011;44116;50.884;4.768;2023-09-19T14:07:47;4.2;;;1.2;;
58306;SDS011;44116;50.884;4.768;2023-09-19T14:09:47;7.0;;;1.3;;
58306;SDS011;44116;50.884;4.768;2023-09-19T14:11:47;5.4;;;1.4;;
58306;SDS011;44116;50.884;4.768;2023-09-19T14:13:47;4.8;;;1.5;;
58306;SDS011;44116;50.884;4.768;2023-09-19T14:15:47;7.2;;;1.3;;
58306;SDS011;44116;50.884;4.768;2023-09-19T14:19:47;4.0;;;1.2;;
58306;SDS011;44116;50.884;4.768;2023-09-19T14:23:47;6.8;;;1.5;;
58306;SDS011;44116;50.884;4.768;2023-09-19T14:25:47;5.3;;;1.4;;
58306;SDS011;44116;50.884;4.768;2023-09-19T14:31:47;4.9;;;1.2;;
58306;SDS011;44116;50.884;4.768;2023-09-19T14:33:53;5.9;;;1.4;;
58306;SDS011;44116;50.884;4.768;2023-09-19T14:35:47;5.6;;;1.6;;
58306;SDS011;44116;50.884;4.768;2023-09-19T14:39:47;5.1;;;1.4;;
58306;SDS011;44116;50.884;4.768;2023-09-19T14:41:46;5.7;;;1.5;;
58306;SDS011;44116;50.884;4.768;2023-09-19T14:43:47;4.7;;;1.4;;
58306;SDS011;44116;50.884;4.768;2023-09-19T14:45:46;6.6;;;1.5;;
58306;SDS011;44116;50.884;4.768;2023-09-19T14:47:47;5.6;;;1.6;;